createdAt,value
2022-09-25T00:00:22.910Z,101120.09
2022-09-25T00:03:04.207Z,101110.09
2022-09-25T00:05:52.927Z,101111.34
2022-09-25T00:08:34.307Z,101123.72
2022-09-25T00:11:22.890Z,101115.13
2022-09-25T00:14:11.898Z,101117.88
2022-09-25T00:16:52.043Z,101110.00
2022-09-25T00:19:56.912Z,101109.28
2022-09-25T00:22:37.075Z,101097.59
2022-09-25T00:25:24.910Z,101093.00
2022-09-25T00:28:15.170Z,101100.19
2022-09-25T00:30:57.932Z,101098.06
2022-09-25T00:33:38.262Z,101095.78
2022-09-25T00:36:24.872Z,101096.97
2022-09-25T00:39:05.920Z,101096.91
2022-09-25T00:41:52.843Z,101086.19
2022-09-25T00:44:56.812Z,101100.81
2022-09-25T00:47:54.942Z,101089.78
2022-09-25T00:51:07.669Z,101074.81
2022-09-25T00:53:54.842Z,101068.75
2022-09-25T00:56:40.213Z,101061.69
2022-09-25T00:59:24.840Z,101059.31
2022-09-25T01:02:11.833Z,101052.94
2022-09-25T01:04:52.673Z,101055.44
2022-09-25T01:07:39.787Z,101062.91
2022-09-25T01:10:22.088Z,101052.66
2022-09-25T01:13:10.786Z,101051.53
2022-09-25T01:16:26.164Z,101055.34
2022-09-25T01:19:53.084Z,101060.69
2022-09-25T01:23:16.951Z,101052.41
2022-09-25T01:26:21.926Z,101052.31
2022-09-25T01:29:35.822Z,101050.84
2022-09-25T01:32:34.803Z,101049.28
2022-09-25T01:35:39.912Z,101040.19
2022-09-25T01:38:35.781Z,101040.78
2022-09-25T01:41:18.985Z,101035.41
2022-09-25T01:44:18.753Z,101045.59
2022-09-25T01:47:21.756Z,101040.47
2022-09-25T01:50:20.809Z,101045.00
2022-09-25T01:53:13.722Z,101043.88
2022-09-25T01:56:10.765Z,101044.50
2022-09-25T01:59:03.775Z,101045.72
2022-09-25T02:01:48.025Z,101044.91
2022-09-25T02:04:55.759Z,101035.03
2022-09-25T02:07:43.895Z,101038.16
2022-09-25T02:10:38.706Z,101030.00
2022-09-25T02:13:25.138Z,101034.09
2022-09-25T02:16:20.781Z,101028.56
2022-09-25T02:19:25.764Z,101035.22
2022-09-25T02:22:21.745Z,101037.97
2022-09-25T02:25:07.881Z,101033.28
2022-09-25T02:27:54.755Z,101038.53
2022-09-25T02:30:41.814Z,101034.31
2022-09-25T02:33:28.694Z,101034.31
2022-09-25T02:36:11.826Z,101043.59
2022-09-25T02:39:01.683Z,101040.94
2022-09-25T02:42:02.696Z,101028.91
2022-09-25T02:45:20.696Z,101033.13
2022-09-25T02:48:34.703Z,101037.63
2022-09-25T02:51:50.682Z,101043.84
2022-09-25T02:55:06.848Z,101054.38
2022-09-25T02:58:31.686Z,101054.28
2022-09-25T03:01:22.823Z,101062.06
2022-09-25T03:04:04.951Z,101061.34
2022-09-25T03:26:40.349Z,101060.69
2022-09-25T03:29:29.946Z,101057.66
2022-09-25T03:32:09.351Z,101060.41
2022-09-25T03:34:56.368Z,101046.00
2022-09-25T03:37:43.337Z,101047.28
2022-09-25T03:40:32.522Z,101056.34
2022-09-25T03:45:58.386Z,101049.09
2022-09-25T03:48:38.423Z,101051.31
2022-09-25T03:51:26.325Z,101057.56
2022-09-25T03:54:06.481Z,101055.91
2022-09-25T03:56:53.322Z,101054.31
2022-09-25T03:59:33.434Z,101060.13
2022-09-25T04:02:20.355Z,101059.28
2022-09-25T04:05:03.616Z,101069.31
2022-09-25T04:07:50.356Z,101065.53
2022-09-25T04:10:30.482Z,101075.13
2022-09-25T04:13:20.312Z,101084.53
2022-09-25T04:16:01.309Z,101084.31
2022-09-25T04:18:49.295Z,101078.50
2022-09-25T04:21:29.405Z,101087.50
2022-09-25T04:24:36.279Z,101091.34
2022-09-25T04:27:17.365Z,101077.63
2022-09-25T04:30:04.250Z,101070.69
2022-09-25T04:33:02.925Z,101077.44
2022-09-25T04:35:49.285Z,101087.97
2022-09-25T04:38:31.728Z,101092.72
2022-09-25T04:41:18.256Z,101083.53
2022-09-25T04:44:05.283Z,101086.19
2022-09-25T04:46:52.603Z,101078.03
2022-09-25T04:49:32.258Z,101086.63
2022-09-25T04:52:13.837Z,101083.31
2022-09-25T04:55:01.254Z,101083.63
2022-09-25T04:57:58.394Z,101082.47
2022-09-25T05:00:47.269Z,101083.34
2022-09-25T05:03:27.750Z,101076.00
2022-09-25T05:06:14.220Z,101077.25
2022-09-25T05:09:01.238Z,101071.72
2022-09-25T05:11:48.245Z,101076.97
2022-09-25T05:14:31.035Z,101072.44
2022-09-25T05:17:19.218Z,101070.28
2022-09-25T05:19:59.692Z,101072.69
2022-09-25T05:22:46.194Z,101073.03
2022-09-25T05:25:34.211Z,101078.34
2022-09-25T05:28:14.721Z,101069.84
2022-09-25T05:31:01.250Z,101076.94
2022-09-25T05:33:43.512Z,101077.06
2022-09-25T05:36:30.175Z,101075.44
2022-09-25T05:39:14.453Z,101073.91
2022-09-25T05:42:01.202Z,101065.13
2022-09-25T05:44:42.304Z,101071.38
2022-09-25T05:47:29.194Z,101076.53
2022-09-25T05:50:09.349Z,101063.88
2022-09-25T05:53:02.215Z,101066.41
2022-09-25T05:55:42.285Z,101074.91
2022-09-25T05:58:29.170Z,101085.16
2022-09-25T06:01:12.337Z,101081.22
2022-09-25T06:03:59.149Z,101083.22
2022-09-25T06:06:39.794Z,101077.66
2022-09-25T06:09:26.237Z,101084.84
2022-09-25T06:12:14.201Z,101084.31
2022-09-25T06:15:01.172Z,101076.19
2022-09-25T06:17:48.152Z,101088.81
2022-09-25T06:20:28.604Z,101086.84
2022-09-25T06:23:15.126Z,101084.66
2022-09-25T06:26:13.162Z,101080.53
2022-09-25T06:28:55.359Z,101075.72
2022-09-25T06:31:44.194Z,101076.16
2022-09-25T06:34:31.168Z,101081.19
2022-09-25T06:37:11.234Z,101085.44
2022-09-25T06:39:58.142Z,101075.50
2022-09-25T06:42:45.172Z,101083.94
2022-09-25T06:45:26.884Z,101083.25
2022-09-25T06:48:20.178Z,101087.03
2022-09-25T06:51:01.210Z,101079.69
2022-09-25T06:53:48.098Z,101082.75
2022-09-25T06:56:28.513Z,101095.53
2022-09-25T06:59:16.139Z,101089.97
2022-09-25T07:02:16.574Z,101083.78
2022-09-25T07:05:03.351Z,101095.09
2022-09-25T07:07:50.241Z,101087.88
2022-09-25T07:10:30.137Z,101087.13
2022-09-25T07:13:17.091Z,101081.75
2022-09-25T07:16:11.152Z,101078.84
2022-09-25T07:19:08.133Z,101074.44
2022-09-25T07:21:48.332Z,101073.22
2022-09-25T07:24:36.117Z,101089.66
2022-09-25T07:27:16.311Z,101085.25
2022-09-25T07:30:03.174Z,101090.69
2022-09-25T07:32:43.195Z,101091.59
2022-09-25T07:35:30.079Z,101089.59
2022-09-25T07:38:11.230Z,101091.81
2022-09-25T07:41:00.126Z,101088.69
2022-09-25T07:43:43.519Z,101078.50
2022-09-25T07:46:35.185Z,101086.38
2022-09-25T07:49:18.222Z,101089.03
2022-09-25T07:52:06.081Z,101086.88
2022-09-25T07:54:50.044Z,101082.56
2022-09-25T07:57:38.079Z,101092.75
2022-09-25T08:00:19.238Z,101088.59
2022-09-25T08:03:07.093Z,101090.63
2022-09-25T08:05:54.037Z,101090.25
2022-09-25T08:08:35.036Z,101094.66
2022-09-25T08:11:24.058Z,101088.75
2022-09-25T08:14:04.523Z,101091.63
2022-09-25T08:16:51.083Z,101093.66
2022-09-25T08:19:38.165Z,101086.41
2022-09-25T08:22:19.086Z,101073.75
2022-09-25T08:25:06.181Z,101076.34
2022-09-25T08:27:48.077Z,101081.94
2022-09-25T08:30:36.237Z,101082.41
2022-09-25T08:33:27.003Z,101082.88
2022-09-25T08:36:07.557Z,101071.25
2022-09-25T08:38:54.022Z,101081.53
2022-09-25T08:42:00.848Z,101068.31
2022-09-25T08:45:02.422Z,101074.59
2022-09-25T08:48:12.895Z,101062.34
2022-09-25T08:50:53.035Z,101069.50
2022-09-25T08:53:41.363Z,101070.69
2022-09-25T08:56:24.044Z,101065.44
2022-09-25T08:59:44.989Z,101053.16
2022-09-25T09:02:36.065Z,101063.84
2022-09-25T09:05:30.809Z,101056.06
2022-09-25T09:08:34.034Z,101064.38
2022-09-25T09:11:27.800Z,101055.53
2022-09-25T09:14:17.090Z,101053.22
2022-09-25T09:17:19.014Z,101046.97
2022-09-25T09:20:15.713Z,101037.84
2022-09-25T09:23:05.997Z,101041.19
2022-09-25T09:26:32.004Z,101043.03
2022-09-25T09:29:53.972Z,101037.06
2022-09-25T09:33:12.198Z,101049.19
2022-09-25T09:35:55.052Z,101039.91
2022-09-25T09:38:46.368Z,101033.50
2022-09-25T09:42:01.951Z,101039.19
2022-09-25T09:44:51.418Z,101026.63
2022-09-25T09:47:45.984Z,101032.59
2022-09-25T09:50:52.382Z,101020.91
2022-09-25T09:53:43.937Z,101024.06
2022-09-25T09:56:41.950Z,101010.38
2022-09-25T09:59:31.015Z,101017.97
2022-09-25T10:02:32.037Z,101013.06
2022-09-25T10:05:26.410Z,101005.34
2022-09-25T10:08:12.960Z,101011.72
2022-09-25T10:10:55.000Z,100996.97
2022-09-25T10:13:49.993Z,101000.75
2022-09-25T10:16:30.615Z,100999.38
2022-09-25T10:19:27.962Z,100998.53
2022-09-25T10:22:28.295Z,100987.44
2022-09-25T10:25:14.912Z,100982.75
2022-09-25T10:27:55.108Z,100982.97
2022-09-25T10:30:42.996Z,100984.16
2022-09-25T10:33:30.041Z,100970.72
2022-09-25T10:36:16.915Z,100971.81
2022-09-25T10:39:17.723Z,100970.72
2022-09-25T10:42:05.884Z,100973.31
2022-09-25T10:44:57.698Z,100970.84
2022-09-25T10:48:08.552Z,100964.09
2022-09-25T10:50:48.940Z,100968.34
2022-09-25T10:53:36.038Z,100957.91
2022-09-25T10:56:20.889Z,100954.22
2022-09-25T10:59:09.369Z,100955.81
2022-09-25T11:01:51.162Z,100952.44
2022-09-25T11:04:39.035Z,100940.56
2022-09-25T11:07:28.947Z,100949.81
2022-09-25T11:10:20.578Z,100937.69
2022-09-25T11:13:07.909Z,100948.56
2022-09-25T11:15:56.195Z,100932.81
2022-09-25T11:19:01.255Z,100929.88
2022-09-25T11:22:15.858Z,100933.16
2022-09-25T11:25:13.149Z,100925.81
2022-09-25T11:28:14.869Z,100924.00
2022-09-25T11:31:16.936Z,100928.34
2022-09-25T11:34:12.499Z,100943.97
2022-09-25T11:37:06.873Z,100939.13
2022-09-25T11:40:25.940Z,100933.22
2022-09-25T11:43:13.842Z,100933.19
2022-09-25T11:46:17.903Z,100919.56
2022-09-25T11:49:26.827Z,100928.06
2022-09-25T11:52:16.715Z,100926.19
2022-09-25T11:55:52.813Z,100924.75
2022-09-25T11:58:41.897Z,100919.78
2022-09-25T12:01:54.870Z,100917.63
2022-09-25T12:04:50.347Z,100904.91
2022-09-25T12:08:17.874Z,100910.09
2022-09-25T12:11:16.485Z,100911.00
2022-09-25T12:14:09.869Z,100918.44
2022-09-25T12:16:50.341Z,100926.38
2022-09-25T12:19:42.824Z,100917.38
2022-09-25T12:22:41.318Z,100913.91
2022-09-25T12:25:48.846Z,100906.53
2022-09-25T12:29:10.848Z,100904.28
2022-09-25T12:32:07.113Z,100892.31
2022-09-25T12:35:02.787Z,100898.63
2022-09-25T12:37:56.762Z,100899.75
2022-09-25T12:40:44.174Z,100895.47
2022-09-25T12:43:46.789Z,100884.03
2022-09-25T12:46:55.756Z,100874.56
2022-09-25T12:49:56.809Z,100877.81
2022-09-25T12:52:52.946Z,100878.44
2022-09-25T12:55:53.816Z,100882.47
2022-09-25T12:58:55.493Z,100880.78
2022-09-25T13:01:37.848Z,100868.19
2022-09-25T13:04:59.872Z,100866.13
2022-09-25T13:08:02.813Z,100869.84
2022-09-25T13:11:06.779Z,100865.28
2022-09-25T13:13:54.113Z,100862.28
2022-09-25T13:16:41.893Z,100861.88
2022-09-25T13:19:34.783Z,100857.28
2022-09-25T13:22:41.718Z,100862.06
2022-09-25T13:25:21.863Z,100861.81
2022-09-25T13:28:14.772Z,100864.19
2022-09-25T13:31:09.430Z,100862.63
2022-09-25T13:34:19.742Z,100861.88
2022-09-25T13:37:02.857Z,100863.97
2022-09-25T13:40:14.786Z,100848.28
2022-09-25T13:42:55.634Z,100835.53
2022-09-25T13:45:43.760Z,100839.78
2022-09-25T13:48:46.763Z,100838.97
2022-09-25T13:51:35.822Z,100831.09
2022-09-25T13:54:22.704Z,100836.69
2022-09-25T13:57:03.886Z,100836.69
2022-09-25T13:59:51.652Z,100837.84
2022-09-25T14:02:43.446Z,100829.16
2022-09-25T14:05:33.731Z,100836.63
2022-09-25T14:08:16.358Z,100833.16
2022-09-25T14:11:07.719Z,100831.50
2022-09-25T14:13:51.878Z,100835.41
2022-09-25T14:16:43.734Z,100831.19
2022-09-25T14:19:29.791Z,100822.19
2022-09-25T14:22:19.656Z,100815.47
2022-09-25T14:25:06.780Z,100809.66
2022-09-25T14:27:59.681Z,100820.81
2022-09-25T14:30:39.783Z,100826.34
2022-09-25T14:33:42.685Z,100828.94
2022-09-25T14:36:52.698Z,100819.44
2022-09-25T14:39:42.229Z,100822.28
2022-09-25T14:42:37.683Z,100817.69
2022-09-25T14:45:44.187Z,100825.22
2022-09-25T14:48:44.632Z,100818.00
2022-09-25T14:51:33.546Z,100816.25
2022-09-25T14:54:26.663Z,100814.28
2022-09-25T14:57:19.877Z,100817.69
2022-09-25T15:00:08.764Z,100820.63
2022-09-25T15:02:56.737Z,100817.31
2022-09-25T15:05:41.773Z,100813.78
2022-09-25T15:08:50.649Z,100821.19
2022-09-25T15:28:00.592Z,100826.13
2022-09-25T15:30:48.609Z,100818.63
2022-09-25T15:33:41.596Z,100816.84
2022-09-25T15:36:31.542Z,100813.75
2022-09-25T15:39:23.695Z,100812.00
2022-09-25T15:42:12.536Z,100801.22
2022-09-25T15:44:54.242Z,100808.31
2022-09-25T15:47:43.496Z,100804.59
2022-09-25T15:50:30.713Z,100807.31
2022-09-25T15:53:28.494Z,100799.22
2022-09-25T15:56:19.596Z,100807.19
2022-09-25T16:00:10.484Z,100802.44
2022-09-25T16:03:30.503Z,100802.31
2022-09-25T16:06:17.646Z,100805.03
2022-09-25T16:09:22.512Z,100804.03
2022-09-25T16:12:19.966Z,100803.66
2022-09-25T16:15:07.498Z,100790.78
2022-09-25T16:17:47.951Z,100791.88
2022-09-25T16:20:34.506Z,100798.00
2022-09-25T16:23:28.972Z,100788.66
2022-09-25T16:26:15.468Z,100783.81
2022-09-25T16:29:05.241Z,100780.72
2022-09-25T16:32:00.561Z,100789.91
2022-09-25T16:34:41.932Z,100790.63
2022-09-25T16:37:37.449Z,100791.66
2022-09-25T16:40:31.532Z,100794.91
2022-09-25T16:43:31.868Z,100802.28
2022-09-25T16:46:22.587Z,100799.06
2022-09-25T16:49:07.617Z,100800.16
2022-09-25T16:51:56.675Z,100789.06
2022-09-25T16:54:46.530Z,100781.66
2022-09-25T16:57:41.290Z,100795.47
2022-09-25T17:00:33.699Z,100800.38
2022-09-25T17:03:20.543Z,100804.38
2022-09-25T17:06:01.761Z,100802.00
2022-09-25T17:08:48.506Z,100810.47
2022-09-25T17:11:29.526Z,100813.56
2022-09-25T17:14:29.588Z,100814.66
2022-09-25T17:17:09.580Z,100806.69
2022-09-25T17:19:56.554Z,100820.22
2022-09-25T17:22:36.493Z,100823.84
2022-09-25T17:25:30.463Z,100813.22
2022-09-25T17:28:25.563Z,100805.72
2022-09-25T17:31:12.682Z,100803.03
2022-09-25T17:33:58.493Z,100797.72
2022-09-25T17:36:38.857Z,100799.94
2022-09-25T17:39:25.486Z,100798.78
2022-09-25T17:42:12.397Z,100790.03
2022-09-25T17:44:52.574Z,100797.44
2022-09-25T17:47:39.422Z,100798.31
2022-09-25T17:50:19.850Z,100808.47
2022-09-25T17:53:06.501Z,100810.34
2022-09-25T17:55:53.467Z,100794.78
2022-09-25T17:58:40.383Z,100799.09
2022-09-25T18:01:27.050Z,100805.47
2022-09-25T18:04:25.298Z,100802.09
2022-09-25T18:07:06.590Z,100801.56
2022-09-25T18:09:53.332Z,100803.56
2022-09-25T18:12:33.454Z,100808.88
2022-09-25T18:15:20.357Z,100807.47
2022-09-25T18:18:00.463Z,100794.78
2022-09-25T18:21:09.123Z,100791.16
2022-09-25T18:23:49.609Z,100801.25
2022-09-25T18:26:44.342Z,100809.69
2022-09-25T18:29:25.478Z,100808.38
2022-09-25T18:32:12.393Z,100797.84
2022-09-25T18:34:52.345Z,100787.16
2022-09-25T18:37:32.785Z,100796.41
2022-09-25T18:40:19.409Z,100792.66
2022-09-25T18:43:01.444Z,100781.94
2022-09-25T18:45:51.362Z,100783.38
2022-09-25T18:48:38.315Z,100785.09
2022-09-25T18:51:18.421Z,100786.06
2022-09-25T18:54:05.345Z,100775.34
2022-09-25T18:56:52.284Z,100781.00
2022-09-25T18:59:32.789Z,100774.34
2022-09-25T19:02:21.355Z,100785.38
2022-09-25T19:05:08.327Z,100779.00
2022-09-25T19:07:48.392Z,100786.94
2022-09-25T19:10:38.306Z,100785.31
2022-09-25T19:13:19.231Z,100793.06
2022-09-25T19:16:07.374Z,100791.53
2022-09-25T19:18:47.440Z,100787.75
2022-09-25T19:21:34.288Z,100786.59
2022-09-25T19:24:25.250Z,100790.72
2022-09-25T19:27:19.277Z,100787.06
2022-09-25T19:29:59.742Z,100792.34
2022-09-25T19:32:46.260Z,100790.94
2022-09-25T19:35:26.594Z,100791.94
2022-09-25T19:38:13.263Z,100790.13
2022-09-25T19:41:00.274Z,100783.94
2022-09-25T19:43:50.286Z,100779.16
2022-09-25T19:46:32.070Z,100783.56
2022-09-25T19:49:19.226Z,100795.16
2022-09-25T19:51:59.656Z,100794.00
2022-09-25T19:54:46.266Z,100791.84
2022-09-25T19:57:27.667Z,100785.19
2022-09-25T20:00:14.232Z,100785.94
2022-09-25T20:02:54.670Z,100788.44
2022-09-25T20:05:41.201Z,100780.09
2022-09-25T20:08:21.731Z,100782.06
2022-09-25T20:11:09.237Z,100781.25
2022-09-25T20:13:51.035Z,100794.72
2022-09-25T20:16:41.227Z,100778.31
2022-09-25T20:19:28.244Z,100789.19
2022-09-25T20:22:11.567Z,100781.84
2022-09-25T20:24:58.232Z,100793.81
2022-09-25T20:27:52.225Z,100782.66
2022-09-25T20:30:42.282Z,100787.72
2022-09-25T20:33:33.929Z,100790.31
2022-09-25T20:36:15.843Z,100780.88
2022-09-25T20:39:04.170Z,100791.41
2022-09-25T20:41:51.228Z,100796.72
2022-09-25T20:44:38.157Z,100797.16
2022-09-25T20:47:20.855Z,100794.00
2022-09-25T20:50:07.236Z,100791.03
2022-09-25T20:52:54.174Z,100787.06
2022-09-25T20:55:41.189Z,100793.38
2022-09-25T20:58:21.644Z,100801.66
2022-09-25T21:01:14.207Z,100799.75
2022-09-25T21:04:01.341Z,100791.19
2022-09-25T21:06:43.335Z,100788.25
2022-09-25T21:09:37.572Z,100778.06
2022-09-25T21:12:17.362Z,100787.09
2022-09-25T21:15:04.249Z,100771.34
2022-09-25T21:17:44.295Z,100777.81
2022-09-25T21:20:31.143Z,100779.28
2022-09-25T21:23:11.305Z,100785.53
2022-09-25T21:25:59.214Z,100765.59
2022-09-25T21:28:48.316Z,100767.88
2022-09-25T21:31:31.238Z,100770.94
2022-09-25T21:34:20.292Z,100765.75
2022-09-25T21:37:00.154Z,100756.13
2022-09-25T21:39:47.150Z,100754.94
2022-09-25T21:42:34.142Z,100749.38
2022-09-25T21:45:14.666Z,100752.78
2022-09-25T21:48:03.102Z,100736.06
2022-09-25T21:51:05.111Z,100733.81
2022-09-25T21:53:45.265Z,100727.63
2022-09-25T21:56:34.140Z,100731.66
2022-09-25T21:59:21.062Z,100731.81
2022-09-25T22:02:08.154Z,100726.16
2022-09-25T22:04:55.076Z,100723.84
2022-09-25T22:07:35.542Z,100723.03
2022-09-25T22:10:22.096Z,100724.19
2022-09-25T22:13:02.958Z,100713.22
2022-09-25T22:15:50.077Z,100707.66
2022-09-25T22:18:31.443Z,100705.50
2022-09-25T22:21:18.119Z,100705.41
2022-09-25T22:23:59.440Z,100705.41
2022-09-25T22:26:50.067Z,100704.94
2022-09-25T22:29:30.668Z,100699.63
2022-09-25T22:32:17.069Z,100707.09
2022-09-25T22:35:04.083Z,100702.84
2022-09-25T22:37:44.168Z,100704.38
2022-09-25T22:40:31.046Z,100703.94
2022-09-25T22:43:19.086Z,100699.72
2022-09-25T22:46:06.222Z,100703.22
2022-09-25T22:48:47.020Z,100687.50
2022-09-25T22:51:34.132Z,100696.91
2022-09-25T22:54:14.048Z,100685.47
2022-09-25T22:57:01.035Z,100689.78
2022-09-25T22:59:41.170Z,100681.91
2022-09-25T23:02:28.063Z,100677.66
2022-09-25T23:05:08.190Z,100684.38
2022-09-25T23:07:55.001Z,100682.75
2022-09-25T23:10:55.098Z,100688.44
2022-09-25T23:13:43.022Z,100682.66
2022-09-25T23:16:24.198Z,100666.94
2022-09-25T23:19:11.017Z,100668.81
2022-09-25T23:21:57.996Z,100677.28
2022-09-25T23:24:38.569Z,100674.75
2022-09-25T23:27:24.997Z,100670.63
2022-09-25T23:30:05.690Z,100664.38
2022-09-25T23:32:51.989Z,100665.09
2022-09-25T23:35:34.611Z,100661.41
2022-09-25T23:38:21.052Z,100660.50
2022-09-25T23:41:02.228Z,100652.06
2022-09-25T23:43:48.963Z,100644.06
2022-09-25T23:46:32.542Z,100638.84
2022-09-25T23:49:18.936Z,100633.88
2022-09-25T23:51:59.409Z,100635.69
2022-09-25T23:54:46.972Z,100637.06
2022-09-25T23:57:27.518Z,100636.00
